Search for airport 
image banner adimage banner adimage banner ad
image banner ad

CL02 - Kilroy Airport Center

Located in El Segundo, United States

ICAO - CL02, IATA -

Data provided by Airmate  

General information

Coordinates: N33°55'48" W118°23'6"
Elevation is 255 feet MSL.
Magnetic variation is 14° East
View others Airports in California

Operational data

Special qualification required
Current time UTC:
Current local time:
Weather at : KLAX - Los Angeles Intl ( 3 km )
METAR: KLAX 211153Z 28005KT 9SM OVC008 17/15 A2995 RMK AO2 SLP140 PRESRR T01670150 10172 20167 53009 $
TAF: KLAX 211124Z 2112/2218 25006KT 6SM BR OVC009 FM211700 26008KT P6SM BKN012 FM211900 26013KT P6SM SCT015 FM220200 26009KT P6SM SCT007 FM220400 25006KT 6SM BR OVC008 FM220900 25005KT P6SM OVC012 FM221700 26008KT P6SM SCT015
View NOTAMs / SUP AIP / TFR affecting this airport [VIEW]
Communications frequencies: [VIEW]

Runways:

Airport contact information

Address: El Segundo United States

Satellite view of CL02